Time;durP1;ratioP1;P1;durP2;ratioP2;P2;SDS_P1;SDS_P2;PMS_P1;PMS_P2;Temp;Humidity;BMP_temperature;BMP_pressure;BME280_temperature;BME280_humidity;BME280_pressure;Samples;Min_cycle;Max_cycle;Signal;HPM_P1;HPM_P2
2022/11/16 00:00:11;;;;;;;51.03;21.92;;;;;;;10.99;100.00;95156.94;5098672;28;20079;-47
2022/11/16 00:02:40;;;;;;;54.25;22.23;;;;;;;10.22;100.00;95147.31;5099893;28;20090;-46
2022/11/16 00:05:08;;;;;;;57.15;22.10;;;;;;;10.40;100.00;95153.13;5101224;28;20086;-47
2022/11/16 00:07:37;;;;;;;91.85;23.20;;;;;;;10.63;100.00;95139.13;5100066;28;20515;-43
2022/11/16 00:10:08;;;;;;;63.13;19.63;;;;;;;9.92;100.00;95135.81;5097930;28;20075;-43
2022/11/16 00:12:36;;;;;;;80.95;21.52;;;;;;;9.94;100.00;95133.78;5094808;28;20083;-46
2022/11/16 00:15:06;;;;;;;86.95;22.67;;;;;;;10.27;100.00;95131.81;5095725;28;20079;-47
2022/11/16 00:17:34;;;;;;;90.35;21.02;;;;;;;10.33;100.00;95132.94;5102061;28;20060;-43
2022/11/16 00:20:02;;;;;;;99.78;21.60;;;;;;;10.73;100.00;95123.88;5102257;28;20100;-43
2022/11/16 00:22:31;;;;;;;112.30;22.88;;;;;;;10.15;100.00;95120.84;5101089;28;20066;-44
2022/11/16 00:24:59;;;;;;;117.43;24.10;;;;;;;10.43;100.00;95117.72;5102719;28;20082;-51
2022/11/16 00:27:29;;;;;;;116.78;23.48;;;;;;;10.08;100.00;95105.91;5099293;28;20059;-47
2022/11/16 00:29:57;;;;;;;133.67;22.47;;;;;;;9.73;100.00;95094.91;5103757;28;20071;-50
2022/11/16 00:32:26;;;;;;;124.43;22.88;;;;;;;9.79;100.00;95096.03;5099139;28;20081;-46
2022/11/16 00:34:54;;;;;;;70.65;18.52;;;;;;;9.36;100.00;95085.91;5099285;28;20498;-47
2022/11/16 00:37:22;;;;;;;91.13;21.08;;;;;;;9.78;100.00;95081.25;5098720;28;20086;-44
2022/11/16 00:39:51;;;;;;;68.50;18.67;;;;;;;10.29;100.00;95082.41;5098756;28;20772;-42
2022/11/16 00:42:19;;;;;;;66.43;18.42;;;;;;;10.64;100.00;95075.69;5099244;28;20134;-42
2022/11/16 00:44:49;;;;;;;73.07;19.83;;;;;;;10.68;100.00;95084.88;5079530;28;20063;-44
2022/11/16 00:47:17;;;;;;;79.13;19.38;;;;;;;10.23;100.00;95099.72;5101897;28;20072;-43
2022/11/16 00:49:45;;;;;;;104.22;20.58;;;;;;;10.26;100.00;95097.75;5105153;28;20090;-45
2022/11/16 00:52:14;;;;;;;53.45;17.50;;;;;;;10.77;100.00;95108.50;5100116;28;20481;-45
2022/11/16 00:54:42;;;;;;;50.20;18.00;;;;;;;11.08;100.00;95109.22;5104097;28;20079;-49
2022/11/16 00:57:10;;;;;;;65.05;19.25;;;;;;;10.27;100.00;95115.19;5100485;28;20125;-49
2022/11/16 00:59:39;;;;;;;48.53;18.05;;;;;;;10.73;100.00;95115.97;5097562;28;20089;-52
2022/11/16 01:02:09;;;;;;;46.60;17.20;;;;;;;10.84;100.00;95120.81;5098755;28;20079;-44
2022/11/16 01:04:37;;;;;;;40.03;17.40;;;;;;;10.98;100.00;95124.50;5097553;28;20074;-43
2022/11/16 01:07:05;;;;;;;43.33;18.48;;;;;;;10.55;100.00;95121.56;5102327;28;20079;-47
2022/11/16 01:09:33;;;;;;;42.97;20.10;;;;;;;11.05;100.00;95124.59;5100195;28;20108;-46
2022/11/16 01:12:11;;;;;;;36.90;18.63;;;;;;;11.65;100.00;95124.38;5100053;28;20079;-51
2022/11/16 01:14:42;;;;;;;27.95;16.85;;;;;;;11.49;100.00;95121.94;5100799;28;20153;-45
2022/11/16 01:17:11;;;;;;;32.75;17.33;;;;;;;10.82;100.00;95124.63;5097994;28;20083;-51
2022/11/16 01:19:40;;;;;;;28.20;16.00;;;;;;;11.14;100.00;95121.66;5096129;28;20087;-48
2022/11/16 01:22:09;;;;;;;33.13;18.20;;;;;;;11.09;100.00;95126.69;5103539;28;20079;-47
2022/11/16 01:24:37;;;;;;;29.35;17.02;;;;;;;11.11;100.00;95118.56;5101572;28;20075;-41
2022/11/16 01:27:05;;;;;;;29.27;17.65;;;;;;;11.14;100.00;95119.03;5097616;28;20086;-46
2022/11/16 01:29:34;;;;;;;27.90;17.02;;;;;;;10.71;100.00;95112.69;5097235;28;20076;-42
2022/11/16 01:32:02;;;;;;;28.73;17.27;;;;;;;10.39;100.00;95111.13;5100403;28;20083;-45
2022/11/16 01:34:32;;;;;;;34.03;19.30;;;;;;;10.24;100.00;95105.78;5101417;28;20071;-48
2022/11/16 01:37:00;;;;;;;30.50;17.17;;;;;;;10.29;100.00;95100.88;5097547;28;20075;-43
2022/11/16 01:39:29;;;;;;;32.42;19.52;;;;;;;10.89;100.00;95091.28;5100959;28;20505;-44
2022/11/16 01:41:57;;;;;;;31.73;19.17;;;;;;;10.89;100.00;95091.28;5102769;28;20171;-43
2022/11/16 01:45:05;;;;;;;33.67;20.08;;;;;;;11.15;100.00;95091.66;5093562;28;20079;-47
2022/11/16 01:47:34;;;;;;;33.75;18.83;;;;;;;11.11;100.00;95090.41;5095507;28;20083;-44
2022/11/16 01:50:08;;;;;;;36.53;19.30;;;;;;;10.98;100.00;95081.44;5092593;28;21076;-48
2022/11/16 01:52:41;;;;;;;33.08;19.40;;;;;;;11.16;100.00;95079.28;5093807;28;20083;-42
2022/11/16 01:55:10;;;;;;;37.00;20.25;;;;;;;10.56;100.00;95075.75;5098296;28;20181;-43
2022/11/16 01:57:41;;;;;;;31.63;19.67;;;;;;;10.79;100.00;95080.16;5104401;28;20075;-48
2022/11/16 02:00:12;;;;;;;35.30;20.30;;;;;;;11.00;100.00;95072.34;5099965;28;20075;-42
2022/11/16 02:02:40;;;;;;;32.47;19.00;;;;;;;10.83;100.00;95070.88;5097266;28;20086;-47
2022/11/16 02:05:11;;;;;;;36.28;22.33;;;;;;;10.62;100.00;95069.75;5096152;28;20456;-43
2022/11/16 02:10:50;;;;;;;32.15;20.35;;;;;;;10.68;100.00;95070.88;5099698;28;20079;-44
2022/11/16 02:13:28;;;;;;;34.75;21.10;;;;;;;11.16;100.00;95064.28;5100449;28;20043;-44
2022/11/16 02:16:02;;;;;;;35.42;20.05;;;;;;;10.47;100.00;95061.03;5099970;28;20079;-48
2022/11/16 02:18:35;;;;;;;37.55;20.42;;;;;;;10.66;100.00;95060.50;5096596;28;20075;-48
2022/11/16 02:21:12;;;;;;;32.63;19.17;;;;;;;11.03;100.00;95047.44;5096271;28;20076;-44
2022/11/16 02:24:05;;;;;;;34.58;20.55;;;;;;;11.29;100.00;95047.81;5095053;28;20534;-47
2022/11/16 02:27:01;;;;;;;31.58;18.45;;;;;;;10.59;100.00;95049.03;5101590;28;20083;-47
2022/11/16 02:29:34;;;;;;;35.70;20.20;;;;;;;11.81;100.00;95043.31;5099125;28;20090;-47
2022/11/16 02:32:05;;;;;;;33.67;20.58;;;;;;;11.65;100.00;95050.44;5096496;28;20091;-46
2022/11/16 02:34:36;;;;;;;36.42;19.83;;;;;;;10.97;100.00;95053.44;5099390;28;20072;-44
2022/11/16 02:37:07;;;;;;;35.50;20.10;;;;;;;11.33;100.00;95059.63;5099965;28;20090;-43
2022/11/16 02:39:37;;;;;;;34.05;20.45;;;;;;;11.45;100.00;95059.97;5098283;28;20503;-44
2022/11/16 02:42:09;;;;;;;30.17;19.27;;;;;;;11.88;100.00;95058.25;5096990;28;20098;-50
2022/11/16 02:44:41;;;;;;;34.15;20.20;;;;;;;11.82;100.00;95064.25;5101324;28;20071;-41
2022/11/16 02:47:13;;;;;;;36.03;19.73;;;;;;;12.11;100.00;95067.81;5090395;28;20086;-46
2022/11/16 02:49:45;;;;;;;38.13;21.25;;;;;;;12.15;100.00;95069.09;5101653;28;20485;-42
2022/11/16 02:52:14;;;;;;;32.28;20.48;;;;;;;11.89;100.00;95061.72;5097825;28;20071;-43
2022/11/16 02:54:42;;;;;;;32.58;21.23;;;;;;;11.46;100.00;95069.53;5095908;28;20071;-42
2022/11/16 02:57:33;;;;;;;31.58;18.88;;;;;;;11.58;100.00;95070.69;5092538;28;20911;-46
2022/11/16 03:00:06;;;;;;;33.83;19.65;;;;;;;11.44;100.00;95062.78;5094174;28;20086;-44
2022/11/16 03:02:41;;;;;;;32.50;19.63;;;;;;;11.29;100.00;95068.09;5101669;28;20103;-41
2022/11/16 03:05:13;;;;;;;32.65;20.88;;;;;;;11.40;100.00;95052.59;5100633;28;20063;-48
2022/11/16 03:07:46;;;;;;;32.17;19.35;;;;;;;11.25;100.00;95046.53;5095529;28;20493;-46
2022/11/16 03:11:58;;;;;;;33.47;20.38;;;;;;;10.25;100.00;95048.66;5096482;28;20068;-44
2022/11/16 03:13:05;;;;;;;37.60;21.70;;;;;;;10.42;100.00;95039.63;5098618;28;20083;-46
2022/11/16 03:15:36;;;;;;;31.03;17.63;;;;;;;10.44;100.00;95035.03;5096430;28;20072;-47
2022/11/16 03:18:05;;;;;;;36.88;20.13;;;;;;;10.98;100.00;95034.81;5095361;28;20457;-45
2022/11/16 03:20:35;;;;;;;31.55;18.88;;;;;;;10.43;100.00;95033.41;5098603;28;20082;-42
2022/11/16 03:23:06;;;;;;;33.92;19.90;;;;;;;10.76;100.00;95025.16;5094049;28;20090;-45
2022/11/16 03:25:39;;;;;;;33.17;18.35;;;;;;;10.86;100.00;95028.34;5097390;28;20083;-45
2022/11/16 03:28:11;;;;;;;33.97;19.05;;;;;;;10.55;100.00;95031.94;5095609;28;20067;-49
2022/11/16 03:30:44;;;;;;;33.60;19.27;;;;;;;11.15;100.00;95030.16;5096672;28;20079;-47
2022/11/16 03:33:16;;;;;;;35.97;20.67;;;;;;;10.64;100.00;95016.88;5096052;28;20079;-42
2022/11/16 03:35:49;;;;;;;33.53;19.55;;;;;;;10.52;100.00;95015.66;5099975;28;20087;-43
2022/11/16 03:38:19;;;;;;;30.73;18.60;;;;;;;11.00;100.00;95024.06;5098632;28;20549;-44
2022/11/16 03:40:47;;;;;;;29.65;17.73;;;;;;;11.74;100.00;95053.81;5102526;28;20087;-42
2022/11/16 03:43:17;;;;;;;35.17;18.33;;;;;;;11.36;100.00;95076.91;5091691;28;20094;-45
2022/11/16 03:45:47;;;;;;;35.22;18.98;;;;;;;12.33;100.00;95063.38;5099963;28;20090;-46
2022/11/16 03:48:15;;;;;;;32.97;18.85;;;;;;;12.45;100.00;95061.84;5099342;28;20063;-42
2022/11/16 03:50:44;;;;;;;31.88;18.02;;;;;;;12.32;100.00;95075.78;5101548;28;20083;-48
2022/11/16 03:53:12;;;;;;;31.15;18.23;;;;;;;12.79;100.00;95073.50;5102219;28;20080;-42
2022/11/16 03:55:41;;;;;;;31.77;19.25;;;;;;;12.27;100.00;95072.88;5095648;28;20086;-42
2022/11/16 03:58:17;;;;;;;28.00;17.45;;;;;;;11.83;100.00;95079.09;5100503;28;20083;-49
2022/11/16 04:00:47;;;;;;;31.20;18.02;;;;;;;12.08;100.00;95068.22;5104763;28;20078;-42
2022/11/16 04:03:15;;;;;;;32.67;18.98;;;;;;;11.36;100.00;95076.91;5101276;28;20076;-47
2022/11/16 04:25:13;;;;;;;27.20;16.75;;;;;;;11.89;100.00;95117.19;5060696;28;20072;-49
2022/11/16 04:37:47;;;;;;;27.30;15.98;;;;;;;11.14;100.00;95128.75;5100993;28;20590;-42
2022/11/16 04:38:49;;;;;;;27.58;16.70;;;;;;;11.53;100.00;95125.06;5095238;28;20170;-42
2022/11/16 04:44:05;;;;;;;26.15;16.17;;;;;;;11.64;100.00;95128.03;5098346;28;20059;-43
2022/11/16 04:49:36;;;;;;;27.80;16.50;;;;;;;12.91;100.00;95122.25;5038385;28;20624;-42
2022/11/16 04:52:04;;;;;;;27.20;17.13;;;;;;;12.96;100.00;95113.72;5033313;28;20161;-49
2022/11/16 04:54:33;;;;;;;29.23;17.45;;;;;;;12.43;100.00;95134.44;5060079;28;20087;-42
2022/11/16 04:57:01;;;;;;;29.63;16.77;;;;;;;12.30;100.00;95129.81;5098673;28;20094;-50
2022/11/16 04:59:29;;;;;;;26.77;17.08;;;;;;;12.51;100.00;95131.66;5099208;28;20079;-43
2022/11/16 05:02:09;;;;;;;26.58;17.25;;;;;;;12.83;100.00;95123.22;5100615;28;20071;-48
2022/11/16 05:04:41;;;;;;;28.20;17.55;;;;;;;13.16;100.00;95121.81;5094620;28;20075;-48
2022/11/16 05:07:11;;;;;;;30.30;18.10;;;;;;;13.34;100.00;95123.97;5100359;28;20625;-44
2022/11/16 05:09:41;;;;;;;29.55;17.17;;;;;;;13.39;100.00;95117.09;5102991;28;20150;-45
2022/11/16 05:12:11;;;;;;;28.17;17.17;;;;;;;13.63;100.00;95122.94;5100544;28;20083;-48
2022/11/16 05:14:39;;;;;;;29.30;17.35;;;;;;;13.71;100.00;95125.41;5098814;28;20083;-46
2022/11/16 05:17:08;;;;;;;27.83;17.95;;;;;;;13.48;100.00;95131.81;5099696;28;20083;-42
2022/11/16 05:22:24;;;;;;;27.20;17.25;;;;;;;13.80;100.00;95120.75;5100940;28;20117;-48
2022/11/16 05:24:53;;;;;;;28.85;17.20;;;;;;;13.67;100.00;95126.81;5095324;28;20071;-45
2022/11/16 05:27:22;;;;;;;25.33;16.45;;;;;;;13.10;100.00;95131.31;5100962;28;20102;-48
2022/11/16 05:29:51;;;;;;;23.27;15.52;;;;;;;13.23;100.00;95135.91;5098171;28;20628;-49
2022/11/16 05:32:20;;;;;;;28.60;16.85;;;;;;;12.83;100.00;95139.09;5094601;28;20083;-53
2022/11/16 05:34:49;;;;;;;26.15;16.95;;;;;;;13.09;100.00;95136.81;5102624;28;20697;-42
2022/11/16 05:37:19;;;;;;;27.23;16.70;;;;;;;13.36;100.00;95145.81;5100879;28;20075;-50
2022/11/16 05:39:49;;;;;;;;;;;;;;;13.79;100.00;95141.13;5103037;28;20080;-46
2022/11/16 05:42:17;;;;;;;24.63;15.57;;;;;;;12.79;100.00;95156.31;5100543;28;19954;-46
2022/11/16 05:44:46;;;;;;;26.25;16.20;;;;;;;13.06;100.00;95153.91;5102663;28;20064;-48
2022/11/16 05:47:14;;;;;;;28.33;17.63;;;;;;;13.12;100.00;95157.63;5097359;28;20091;-45
2022/11/16 05:49:42;;;;;;;28.70;17.50;;;;;;;12.86;100.00;95159.03;5093015;28;20083;-43
2022/11/16 05:52:11;;;;;;;28.83;17.50;;;;;;;13.47;100.00;95143.41;5098452;28;20078;-43
2022/11/16 05:54:39;;;;;;;27.58;16.48;;;;;;;12.80;100.00;95160.63;5096582;28;20083;-46
2022/11/16 05:57:09;;;;;;;26.48;16.30;;;;;;;13.42;100.00;95155.59;5098992;28;20083;-42
2022/11/16 05:59:37;;;;;;;37.23;25.53;;;;;;;13.47;100.00;95151.38;5097253;28;20075;-43
2022/11/16 06:02:05;;;;;;;26.73;18.17;;;;;;;12.99;100.00;95153.84;5096540;28;20083;-43
2022/11/16 06:04:34;;;;;;;27.92;17.52;;;;;;;13.15;100.00;95147.47;5097544;28;20063;-43
2022/11/16 06:07:02;;;;;;;26.38;17.25;;;;;;;13.04;100.00;95153.25;5098824;28;20091;-42
2022/11/16 06:09:30;;;;;;;26.85;15.93;;;;;;;13.20;100.00;95157.47;5098212;28;20080;-44
2022/11/16 06:11:59;;;;;;;25.35;15.65;;;;;;;13.13;100.00;95151.31;5099045;28;20102;-41
2022/11/16 06:14:29;;;;;;;26.17;16.45;;;;;;;13.36;100.00;95156.41;5101337;28;20625;-46
2022/11/16 06:16:57;;;;;;;24.87;16.33;;;;;;;13.46;100.00;95162.16;5099318;28;20471;-44
2022/11/16 06:19:25;;;;;;;26.17;17.33;;;;;;;13.56;100.00;95156.50;5094852;28;20087;-41
2022/11/16 06:21:59;;;;;;;28.27;17.52;;;;;;;13.31;100.00;95162.25;5098746;28;20078;-47
2022/11/16 06:24:27;;;;;;;27.75;18.52;;;;;;;13.50;100.00;95158.91;5096564;28;20072;-42
2022/11/16 06:26:56;;;;;;;29.95;18.55;;;;;;;13.11;100.00;95161.25;5100554;28;20089;-48
2022/11/16 06:29:24;;;;;;;25.33;17.23;;;;;;;12.53;100.00;95164.84;5098823;28;20071;-50
2022/11/16 06:31:54;;;;;;;27.73;17.75;;;;;;;11.69;100.00;95174.19;5100598;28;20079;-45
2022/11/16 06:34:23;;;;;;;28.13;17.27;;;;;;;11.58;100.00;95164.91;5098693;28;20079;-51
2022/11/16 06:36:51;;;;;;;27.92;17.00;;;;;;;11.18;100.00;95169.59;5101657;28;20513;-44
2022/11/16 06:39:20;;;;;;;27.48;17.33;;;;;;;12.49;100.00;95153.00;5097684;28;20074;-45
2022/11/16 06:41:48;;;;;;;27.48;16.10;;;;;;;11.52;100.00;95155.88;5101526;28;20463;-44
2022/11/16 06:44:16;;;;;;;29.33;17.45;;;;;;;11.75;100.00;95152.34;5099873;28;20094;-46
2022/11/16 06:46:45;;;;;;;26.30;16.48;;;;;;;11.71;100.00;95154.53;5096152;28;20466;-44
2022/11/16 06:49:15;;;;;;;24.00;15.30;;;;;;;11.03;100.00;95160.88;5097994;28;20083;-48
2022/11/16 06:51:43;;;;;;;27.10;16.70;;;;;;;11.50;100.00;95151.81;5096434;28;20537;-44
2022/11/16 06:54:11;;;;;;;23.85;15.80;;;;;;;12.09;100.00;95151.75;5101474;28;20067;-51
2022/11/16 06:56:40;;;;;;;26.35;16.95;;;;;;;11.32;100.00;95145.09;5099861;28;20076;-48
2022/11/16 06:59:08;;;;;;;29.13;17.42;;;;;;;11.28;100.00;95154.34;5098339;28;20078;-46
2022/11/16 07:01:36;;;;;;;23.65;16.23;;;;;;;11.41;100.00;95157.16;5095424;28;20080;-43
2022/11/16 07:04:05;;;;;;;28.42;16.75;;;;;;;10.96;100.00;95154.66;5104056;28;20087;-45
2022/11/16 07:06:34;;;;;;;23.33;15.38;;;;;;;11.28;100.00;95154.34;5097098;28;20075;-43
2022/11/16 07:09:05;;;;;;;28.23;17.20;;;;;;;12.73;100.00;95161.56;5100728;28;21938;-44
2022/11/16 07:11:33;;;;;;;27.38;16.08;;;;;;;13.09;100.00;95164.09;5101780;28;20547;-42
2022/11/16 07:14:02;;;;;;;27.63;16.17;;;;;;;13.16;100.00;95162.31;5101799;28;20079;-43
2022/11/16 07:16:31;;;;;;;26.02;16.73;;;;;;;13.16;100.00;95157.03;5097387;28;20078;-46
2022/11/16 07:18:59;;;;;;;27.90;16.35;;;;;;;12.14;100.00;95162.59;5096065;28;20076;-45
2022/11/16 07:21:28;;;;;;;26.85;16.45;;;;;;;12.09;100.00;95163.16;5099915;28;20071;-45
2022/11/16 07:23:57;;;;;;;22.02;15.32;;;;;;;12.48;100.00;95159.28;5098911;28;20087;-50
2022/11/16 07:26:27;;;;;;;26.17;15.63;;;;;;;11.94;100.00;95157.09;5094774;28;20079;-45
2022/11/16 07:28:56;;;;;;;23.42;15.43;;;;;;;12.33;100.00;95155.88;5083845;28;20073;-46
2022/11/16 07:31:24;;;;;;;24.10;15.30;;;;;;;12.44;100.00;95158.03;5096943;28;20479;-48
2022/11/16 07:33:52;;;;;;;24.50;15.45;;;;;;;11.92;100.00;95164.38;5103206;28;20071;-41
2022/11/16 07:36:21;;;;;;;21.80;14.80;;;;;;;12.61;100.00;95160.44;5103066;28;20082;-44
2022/11/16 07:38:49;;;;;;;23.52;15.50;;;;;;;13.02;100.00;95164.06;5093535;28;20075;-45
2022/11/16 07:41:20;;;;;;;24.05;15.75;;;;;;;12.91;100.00;95161.94;5102146;28;20091;-45
2022/11/16 07:43:48;;;;;;;23.80;16.00;;;;;;;12.42;100.00;95170.63;5099202;28;20086;-49
2022/11/16 07:46:22;;;;;;;26.90;16.33;;;;;;;12.63;100.00;95164.53;5097376;28;20098;-52
2022/11/16 07:49:14;;;;;;;24.00;15.88;;;;;;;13.16;100.00;95166.81;5101976;28;20506;-47
2022/11/16 07:51:44;;;;;;;24.63;16.50;;;;;;;12.42;100.00;95161.84;5095767;28;20072;-46
2022/11/16 07:54:13;;;;;;;25.47;16.90;;;;;;;12.77;100.00;95174.22;5104391;28;20125;-49
2022/11/16 07:56:42;;;;;;;23.95;15.48;;;;;;;12.52;100.00;95165.81;5098844;28;20075;-47
2022/11/16 07:59:11;;;;;;;23.37;15.47;;;;;;;11.93;100.00;95167.81;5096474;28;20087;-52
2022/11/16 08:01:39;;;;;;;22.70;15.50;;;;;;;13.10;100.00;95170.22;5084299;28;20071;-49
2022/11/16 08:04:08;;;;;;;24.67;16.23;;;;;;;12.63;100.00;95171.63;5097567;28;20075;-40
2022/11/16 08:06:36;;;;;;;23.75;15.60;;;;;;;12.99;100.00;95171.56;5095161;28;20102;-49
2022/11/16 08:09:04;;;;;;;23.52;16.27;;;;;;;12.71;100.00;95168.88;5095103;28;20087;-43
2022/11/16 08:11:33;;;;;;;25.98;16.92;;;;;;;12.93;100.00;95170.47;5100636;28;20473;-49
2022/11/16 08:14:02;;;;;;;25.20;16.73;;;;;;;13.17;100.00;95168.44;5101927;28;20556;-44
2022/11/16 08:16:32;;;;;;;26.60;17.00;;;;;;;12.97;100.00;95168.25;5094266;28;20076;-43
2022/11/16 08:19:01;;;;;;;24.90;15.88;;;;;;;12.75;100.00;95168.28;5097868;28;20083;-50
2022/11/16 08:21:29;;;;;;;23.58;16.17;;;;;;;13.69;100.00;95153.91;5101914;28;20095;-45
2022/11/16 08:23:57;;;;;;;25.50;16.48;;;;;;;14.44;100.00;95158.28;5101307;28;20067;-42
2022/11/16 08:26:26;;;;;;;24.67;16.90;;;;;;;14.53;100.00;95166.91;5100520;28;20510;-48
2022/11/16 08:28:56;;;;;;;25.23;17.70;;;;;;;13.65;100.00;95165.94;5090431;28;20079;-48
2022/11/16 08:31:27;;;;;;;24.10;16.50;;;;;;;13.25;100.00;95163.03;5095111;28;20586;-48
2022/11/16 08:33:56;;;;;;;24.00;16.40;;;;;;;13.94;100.00;95165.69;5094628;28;20087;-45
2022/11/16 08:36:24;;;;;;;22.92;16.63;;;;;;;14.12;100.00;95165.13;5098029;28;20549;-47
2022/11/16 08:38:53;;;;;;;25.08;16.48;;;;;;;13.85;100.00;95166.84;5102882;28;20443;-45
2022/11/16 08:41:22;;;;;;;24.67;16.88;;;;;;;13.65;100.00;95161.44;5104965;28;20457;-47
2022/11/16 08:43:52;;;;;;;22.50;16.15;;;;;;;13.30;100.00;95177.31;5101219;28;20526;-46
2022/11/16 08:46:21;;;;;;;25.38;17.02;;;;;;;13.76;100.00;95166.22;5103944;28;20075;-45
2022/11/16 08:48:54;;;;;;;24.98;17.83;;;;;;;14.37;100.00;95161.94;5103796;28;20072;-41
2022/11/16 08:51:24;;;;;;;23.38;15.63;;;;;;;13.47;100.00;95167.25;5102245;28;20082;-47
2022/11/16 08:53:55;;;;;;;26.70;16.98;;;;;;;13.80;100.00;95161.34;5098196;28;20083;-43
2022/11/16 08:56:25;;;;;;;24.83;16.58;;;;;;;13.47;100.00;95167.25;5098415;28;20087;-50
2022/11/16 08:58:54;;;;;;;26.23;17.30;;;;;;;14.43;100.00;95167.25;5096538;28;20082;-50
2022/11/16 09:01:27;;;;;;;27.05;17.55;;;;;;;14.15;100.00;95166.56;5105629;28;20443;-49
2022/11/16 09:03:57;;;;;;;25.27;17.97;;;;;;;13.64;100.00;95172.25;5099255;28;20079;-48
2022/11/16 09:06:26;;;;;;;26.03;17.23;;;;;;;14.01;100.00;95165.72;5099745;28;20546;-42
2022/11/16 09:08:54;;;;;;;24.23;16.48;;;;;;;14.33;100.00;95172.13;5088245;28;20497;-48
2022/11/16 09:11:24;;;;;;;22.73;16.50;;;;;;;15.05;100.00;95175.16;5098178;28;20079;-46
2022/11/16 09:13:54;;;;;;;25.10;17.05;;;;;;;14.11;100.00;95176.75;5095119;28;20071;-43
2022/11/16 09:16:23;;;;;;;24.83;16.70;;;;;;;14.62;100.00;95178.16;5099216;28;20092;-48
2022/11/16 09:18:52;;;;;;;25.77;17.50;;;;;;;13.90;100.00;95183.00;5102804;28;20475;-45
2022/11/16 09:21:23;;;;;;;26.33;18.48;;;;;;;15.10;100.00;95178.00;5098584;28;20067;-46
2022/11/16 09:23:53;;;;;;;24.50;17.17;;;;;;;15.17;100.00;95181.47;5102292;28;20439;-43
2022/11/16 09:26:21;;;;;;;27.13;17.20;;;;;;;14.63;100.00;95177.97;5103048;28;20071;-47
2022/11/16 09:28:55;;;;;;;25.33;16.42;;;;;;;15.35;100.00;95183.53;5097229;28;20463;-55
2022/11/16 09:31:26;;;;;;;24.48;17.17;;;;;;;15.61;100.00;95180.00;5095544;28;20088;-49
2022/11/16 09:33:57;;;;;;;22.90;16.25;;;;;;;15.89;100.00;95185.06;5098788;28;20075;-44
2022/11/16 09:36:27;;;;;;;23.85;16.48;;;;;;;16.09;100.00;95182.34;5095943;28;20076;-46
2022/11/16 09:38:56;;;;;;;22.83;16.27;;;;;;;15.81;100.00;95183.47;5079248;28;20071;-49
2022/11/16 09:41:54;;;;;;;24.95;16.88;;;;;;;15.73;100.00;95181.03;5091875;28;20080;-47
2022/11/16 09:44:58;;;;;;;23.90;16.83;;;;;;;16.30;100.00;95181.25;5097941;28;20474;-43
2022/11/16 09:47:39;;;;;;;40.15;27.92;;;;;;;16.03;100.00;95180.53;5097532;28;20103;-50
2022/11/16 09:50:30;;;;;;;30.02;19.98;;;;;;;16.07;100.00;95185.25;5097150;28;20474;-43
2022/11/16 09:53:07;;;;;;;23.83;16.42;;;;;;;16.54;100.00;95185.84;5098388;28;20087;-45
2022/11/16 09:55:39;;;;;;;22.42;16.00;;;;;;;16.61;100.00;95183.13;5100086;28;20098;-46
2022/11/16 09:58:13;;;;;;;22.98;16.45;;;;;;;16.34;100.00;95180.63;5094411;28;20084;-46
2022/11/16 10:00:44;;;;;;;23.65;17.13;;;;;;;17.05;100.00;95184.13;5096827;28;20090;-47
2022/11/16 10:03:13;;;;;;;21.45;15.23;;;;;;;16.14;100.00;95182.56;5100282;28;20080;-48
2022/11/16 10:05:45;;;;;;;22.42;16.15;;;;;;;16.81;100.00;95183.88;5098799;28;20578;-47
2022/11/16 10:08:25;;;;;;;20.08;15.48;;;;;;;17.43;100.00;95180.53;5096901;28;20076;-47
2022/11/16 10:11:01;;;;;;;22.00;15.82;;;;;;;17.48;100.00;95170.03;5100701;28;20079;-42
2022/11/16 10:13:41;;;;;;;20.88;15.82;;;;;;;17.26;100.00;95188.25;5100026;28;20587;-44
2022/11/16 10:16:14;;;;;;;20.38;14.90;;;;;;;16.90;100.00;95186.28;5096649;28;20113;-48
2022/11/16 10:18:48;;;;;;;20.65;14.68;;;;;;;17.32;100.00;95174.06;5096952;28;20098;-47
2022/11/16 10:21:37;;;;;;;21.83;15.55;;;;;;;16.69;100.00;95179.41;5094022;28;20079;-49
2022/11/16 10:24:24;;;;;;;22.88;15.57;;;;;;;17.35;100.00;95175.50;5100298;28;20082;-44
2022/11/16 10:27:00;;;;;;;21.50;14.85;;;;;;;17.70;100.00;95163.25;5098626;28;20553;-43
2022/11/16 10:29:42;;;;;;;19.40;14.52;;;;;;;17.78;100.00;95162.19;5100603;28;20509;-44
2022/11/16 10:32:17;;;;;;;22.13;15.77;;;;;;;17.17;100.00;95170.91;5091477;28;20079;-47
2022/11/16 10:34:51;;;;;;;21.40;15.63;;;;;;;17.61;100.00;95156.56;5098232;28;20601;-44
2022/11/16 10:37:20;;;;;;;20.65;16.15;;;;;;;17.51;100.00;95157.06;5097591;28;20063;-50
2022/11/16 10:39:53;;;;;;;22.23;16.23;;;;;;;16.80;100.00;95171.59;5101599;28;20079;-42
2022/11/16 10:42:23;;;;;;;19.65;14.85;;;;;;;17.22;100.00;95161.25;5098413;28;20102;-51
2022/11/16 10:44:56;;;;;;;22.20;14.90;;;;;;;17.66;100.00;95158.59;5099540;28;20071;-46
2022/11/16 10:47:27;;;;;;;20.75;15.05;;;;;;;17.05;100.00;95170.81;5102184;28;20067;-49
2022/11/16 10:50:04;;;;;;;22.77;14.68;;;;;;;16.41;100.00;95166.47;5092106;28;20087;-47
2022/11/16 10:52:32;;;;;;;21.08;14.50;;;;;;;16.37;100.00;95166.06;5093378;28;20538;-45
2022/11/16 10:55:02;;;;;;;22.23;15.10;;;;;;;16.88;100.00;95159.84;5096432;28;20090;-43
2022/11/16 10:57:53;;;;;;;20.50;14.32;;;;;;;15.95;100.00;95162.16;5101561;28;20086;-45
2022/11/16 11:00:33;;;;;;;18.63;13.85;;;;;;;16.53;100.00;95156.78;5095099;28;20086;-46
2022/11/16 11:03:02;;;;;;;;;;;;;;;16.79;100.00;95156.66;5101468;28;20059;-47
2022/11/16 11:05:30;;;;;;;18.52;12.75;;;;;;;16.27;100.00;95158.53;5099343;28;19962;-45
2022/11/16 11:08:04;;;;;;;17.13;12.60;;;;;;;16.29;100.00;95167.13;5092191;28;20080;-46
2022/11/16 11:10:35;;;;;;;22.67;14.30;;;;;;;15.92;100.00;95160.72;5099405;28;20130;-41
2022/11/16 11:13:19;;;;;;;18.52;12.88;;;;;;;16.02;100.00;95160.28;5094085;28;20079;-46
2022/11/16 11:15:50;;;;;;;20.70;13.60;;;;;;;15.89;100.00;95161.16;5097567;28;20405;-45
2022/11/16 11:18:25;;;;;;;23.60;14.45;;;;;;;15.84;100.00;95159.13;5099011;28;20063;-43
2022/11/16 11:21:06;;;;;;;20.52;14.40;;;;;;;15.92;100.00;95155.41;5097321;28;20075;-45
2022/11/16 11:23:45;;;;;;;19.88;14.23;;;;;;;15.91;100.00;95164.44;5093562;28;20086;-43
2022/11/16 11:26:30;;;;;;;23.83;14.75;;;;;;;15.80;100.00;95157.91;5095450;28;20521;-48
2022/11/16 11:29:15;;;;;;;20.70;14.13;;;;;;;15.88;100.00;95156.88;5098520;28;20079;-46
2022/11/16 11:31:46;;;;;;;18.50;13.20;;;;;;;16.13;100.00;95156.97;5095931;28;20156;-44
2022/11/16 11:34:15;;;;;;;;;;;;;;;16.27;100.00;95163.03;5100190;28;20075;-46
2022/11/16 11:36:46;;;;;;;19.33;12.77;;;;;;;16.17;100.00;95160.03;5096755;28;19955;-48
2022/11/16 11:39:30;;;;;;;16.88;12.48;;;;;;;16.36;100.00;95153.81;5093211;28;20525;-43
2022/11/16 11:42:20;;;;;;;18.75;12.43;;;;;;;16.26;100.00;95161.44;5093866;28;20071;-46
2022/11/16 11:44:53;;;;;;;18.47;13.43;;;;;;;16.74;100.00;95156.47;5096725;28;20105;-47
2022/11/16 11:47:38;;;;;;;17.90;13.20;;;;;;;16.94;100.00;95152.88;5095947;28;20074;-45
2022/11/16 11:50:27;;;;;;;16.60;11.52;;;;;;;16.84;100.00;95151.50;5095586;28;20079;-43
2022/11/16 11:53:02;;;;;;;17.48;12.27;;;;;;;16.75;100.00;95158.09;5101643;28;20355;-47
2022/11/16 11:55:30;;;;;;;17.15;12.60;;;;;;;16.66;100.00;95164.69;5097188;28;20079;-46
2022/11/16 11:58:01;;;;;;;17.63;12.93;;;;;;;17.02;100.00;95161.41;5096710;28;20125;-47
2022/11/16 12:00:37;;;;;;;18.25;13.23;;;;;;;17.16;100.00;95159.44;5098620;28;20278;-47
2022/11/16 12:03:26;;;;;;;16.77;12.85;;;;;;;17.26;100.00;95165.09;5093980;28;20071;-48
2022/11/16 12:06:04;;;;;;;16.33;11.75;;;;;;;17.24;100.00;95163.66;5103728;28;20078;-42
2022/11/16 12:08:55;;;;;;;17.33;12.77;;;;;;;17.07;100.00;95166.09;5095952;28;20094;-45